Tropical Cyclones
[Index]
Main Index Home Page Stock Weather Photos Extreme Storms Discussion Storm News and Storm Chasing Reports Tropical Cyclones / Hurricanes / Typhoons Weather Data and Links Wild Fires / Bushfires Weather Observation Techniques Weather Picture Catalogue Tornado Pictures and Reports Stock Video Footage and DVDs for sale
Season 2012-2013 Tropical Cyclone VICTORIA Track Map
Season 2012-2013 Summaries: [BoM-AU] [JTWC-AU] [JTWC-SIO] [JTWC-SPAC] [JTWC-SH]
<<- Previous TC | JTWC 2012-2013 Season | Next TC ->>

click for intensity scale information  Lat/long Grid: Show Hide

 Date Labels: Show Hide

Joint Typhoon Warning Centre Cyclone Data

Name: VICTORIA

08 Apr 2013 06:00 UTC to 12 Apr 2013 00:00 UTC

    date/time    lat    long     hPa   cat  kts
2013-04-08 06    9.1   102.0    1007         20          
2013-04-08 12    9.9   102.0    1004         25          
2013-04-08 18   10.7   102.1    1000         30          
2013-04-09 00   11.5   102.3     996         35          
2013-04-09 06   12.4   102.6     989    1    45          
2013-04-09 12   13.2   103.0     985    1    50          
2013-04-09 18   14.0   103.4     978    2    60          
2013-04-10 00   14.9   103.6     974    2    65          
2013-04-10 00   14.9   103.6     974    2    65          
2013-04-10 06   15.7   103.8     967    3    75          
2013-04-10 06   15.7   103.8     967    3    75          
2013-04-10 06   15.7   103.8     967    3    75          
2013-04-10 12   16.3   103.9     970    2    70          
2013-04-10 12   16.3   103.9     970    2    70          
2013-04-10 12   16.3   103.9     970    2    70          
2013-04-10 18   16.8   104.4     970    2    70          
2013-04-10 18   16.8   104.4     970    2    70          
2013-04-11 00   17.7   104.7     970    2    70          
2013-04-11 00   17.7   104.7     970    2    70          
2013-04-11 06   18.6   104.8     978    2    60          
2013-04-11 06   18.6   104.8     978    2    60          
2013-04-11 12   19.8   105.0     985    1    50          
2013-04-11 18   21.1   105.3     993    1    40          
2013-04-12 00   23.4   106.3    1007         20          
Winds are 1-min average.

Tropical cyclone tracks developed by Michael Bath using data from the Joint Typhoon Warning Centre Best Tracks and Google Maps.


[Australian Severe Weather index] [Copyright Notice] [Email Contacts] [Search This Site] [Privacy Policy]
Document: tropical_cyclone_victoria.htm Updated: 28 June 2017